Corinne, Utah
Current Conditions -  °F | °C
As of 11:35 PM on Monday 20 Oct 2014 (Local Time) from KBMC Reporting Station
Clear Clear  
Wind Chill: 51°   Ceiling: Unl
Heat Index: 51°   Visibility: 10mi
Dew Point: 41°   Wind: 3mph
Humidity: 68%   Direction: 350°N
Pressure: 29.89"   Gusts: NA
Location:  41.55°N, 112.11°W
Report Text: KBMC 210535Z AUTO 35003KT 10SM CLR 11/05 A2989 RMK AO1 T01060049
Loading
Personal Weather Stations






























Interactive Weather Map
Tropical Storm Tracking
New forecast layout! Learn more

10-Day Weather Forecast

Advertisements
Track Severe Weather on mobile